Flight Track Log - Related Links

Times and Time Zones

All times are in EDT time to prevent confusion due to time zone crossing. See the N5166P flight status page for this flight to view local times or setup timezone preferences in your user account.

Time Position Orientation Groundspeed Altitude Reporting Facility
EDT Latitude Longitude Course Direction KTS MPH feet Rate Location/Type
Fri 08:28:22 PM 32.8567 -117.0128 314° West 148 170 2,800  Level Los Angeles Center
Fri 08:29:24 PM 32.8872 -117.0500 314° West 158 182 5,000 2,129 Climbing Los Angeles Center
Fri 08:30:26 PM 32.9053 -117.1031 292° West 168 193 7,200 2,565 Climbing Los Angeles Center
Fri 08:31:28 PM 32.9217 -117.1656 287° West 170 196 10,300 2,419 Climbing Los Angeles Center
Fri 08:32:30 PM 32.9469 -117.2128 303° West 169 194 12,200 1,790 Climbing Los Angeles Center
Fri 08:33:32 PM 32.9706 -117.2650 298° West 173 199 14,000 919 Climbing Los Angeles Center
Fri 08:34:34 PM 33.0036 -117.3325 300° West 228 262 14,100  Climbing Los Angeles Center
Fri 08:35:37 PM 33.0411 -117.4194 297° West 280 322 14,000  Descending Los Angeles Center
Fri 08:36:39 PM 33.0761 -117.5111 295° West 291 335 14,100 1,016 Climbing Los Angeles Center
Fri 08:37:41 PM 33.0981 -117.6072 285° West 262 302 16,100 1,742 Climbing Los Angeles Center
Fri 08:38:43 PM 33.1269 -117.6797 295° West 246 283 17,700 1,403 Climbing Los Angeles Center
Fri 08:39:45 PM 33.1647 -117.7494 303° West 247 284 19,000 1,355 Climbing Los Angeles Center
Fri 08:40:47 PM 33.2011 -117.8208 301° West 247 284 20,500 1,452 Climbing Los Angeles Center
Fri 08:41:49 PM 33.2458 -117.8856 310° West 250 288 22,000 1,452 Climbing Los Angeles Center
Fri 08:42:51 PM 33.3006 -117.9647 310° West 253 291 23,500 2,064 Climbing Los Angeles Center
Fri 08:43:54 PM 33.3422 -118.0250 310° West 239 275 26,300 2,112 Climbing Los Angeles Center
Fri 08:44:56 PM 33.3781 -118.0772 309° West 211 243 27,900 1,597 Climbing Los Angeles Center
Fri 08:45:58 PM 33.4139 -118.1308 309° West 208 239 29,600 1,016 Climbing Los Angeles Center
Fri 08:47:00 PM 33.4539 -118.1886 310° West 216 249 30,000 194 Climbing Los Angeles Center
Fri 08:48:02 PM 33.5036 -118.2631 309° West 268 308 30,000  Level Los Angeles Center
Fri 08:49:04 PM 33.5700 -118.3636 308° West 309 356 30,000  Level Los Angeles Center
Fri 08:50:06 PM 33.6308 -118.4531 309° West 333 383 30,000  Level Los Angeles Center
Fri 08:51:09 PM 33.6928 -118.5442 309° West 342 394 30,000  Level Los Angeles Center
Fri 08:52:11 PM 33.7533 -118.6331 309° West 341 392 30,000  Level Los Angeles Center
Fri 08:53:13 PM 33.8139 -118.7225 309° West 341 392 30,000  Level Los Angeles Center
Fri 08:54:15 PM 33.8733 -118.8125 309° West 342 394 30,000  Level Los Angeles Center
Fri 08:55:17 PM 33.9336 -118.9025 309° West 343 395 30,000  Level Los Angeles Center
Fri 08:56:19 PM 33.9939 -118.9928 309° West 343 395 30,000  Level Los Angeles Center
Fri 08:57:21 PM 34.0669 -119.1017 309° West 345 397 30,000  Level Los Angeles Center
Fri 08:58:23 PM 34.1278 -119.1933 309° West 349 402 30,000  Level Los Angeles Center
Fri 08:59:26 PM 34.1875 -119.2856 308° West 350 403 30,000  Level Los Angeles Center
Fri 09:00:28 PM 34.2492 -119.3775 309° West 350 403 30,000  Level Los Angeles Center
Fri 09:01:30 PM 34.3103 -119.4694 309° West 350 403 30,000  Level Los Angeles Center
Fri 09:02:32 PM 34.3803 -119.5514 316° Northwest 350 403 30,000  Level Los Angeles Center
Fri 09:03:34 PM 34.4753 -119.6375 323° Northwest 354 407 30,000  Level Los Angeles Center
Fri 09:04:36 PM 34.5564 -119.7086 324° Northwest 355 409 30,000  Level Los Angeles Center
Fri 09:05:38 PM 34.6286 -119.7706 325° Northwest 355 409 30,000  Level Los Angeles Center
Fri 09:06:40 PM 34.7239 -119.8556 324° Northwest 355 409 30,000  Level Los Angeles Center
Fri 09:07:42 PM 34.8036 -119.9275 323° Northwest 354 407 30,000  Level Los Angeles Center
Fri 09:08:44 PM 34.8825 -120.0000 323° Northwest 354 407 30,000  Level Los Angeles Center
Fri 09:09:46 PM 34.9628 -120.0714 324° Northwest 355 409 30,000  Level Los Angeles Center
Fri 09:10:48 PM 35.0428 -120.1431 324° Northwest 355 409 30,000  Level Los Angeles Center
Fri 09:11:50 PM 35.1208 -120.2147 323° Northwest 355 409 30,000  Level Los Angeles Center
Fri 09:12:52 PM 35.2139 -120.2989 324° Northwest 353 406 30,000  Level Los Angeles Center
Fri 09:13:54 PM 35.2925 -120.3678 324° Northwest 351 404 30,000  Level Los Angeles Center
Fri 09:14:56 PM 35.3700 -120.4419 322° Northwest 358 412 30,000  Level Los Angeles Center
Fri 09:15:58 PM 35.4472 -120.5144 323° Northwest 359 413 30,000  Level Los Angeles Center
Fri 09:17:00 PM 35.5253 -120.5861 323° Northwest 355 409 30,000  Level Los Angeles Center
Fri 09:18:02 PM 35.6303 -120.6539 332° Northwest 355 409 30,000  Level Los Angeles Center
Fri 09:18:41 PM 35.6761 -120.6850 331° Northwest 357 411 30,000 -180 Level Oakland Center
Fri 09:19:42 PM 35.7644 -120.7392 334° Northwest 357 411 29,700 -787 Descending Oakland Center
Fri 09:20:43 PM 35.8500 -120.7931 333° Northwest 346 398 28,400 -1,475 Descending Oakland Center
Fri 09:21:44 PM 35.9475 -120.8553 333° Northwest 331 381 26,700 -1,415 Descending Oakland Center
Fri 09:22:46 PM 36.0264 -120.9058 333° Northwest 322 371 25,500 -1,171 Descending Oakland Center
Fri 09:23:47 PM 36.1042 -120.9553 333° Northwest 317 365 24,300 -1,180 Descending Oakland Center
Fri 09:24:48 PM 36.1797 -121.0050 332° Northwest 311 358 23,100 -1,180 Descending Oakland Center
Fri 09:25:49 PM 36.2553 -121.0528 333° Northwest 309 356 21,900 -1,180 Descending Oakland Center
Fri 09:26:50 PM 36.3292 -121.1014 332° Northwest 304 350 20,700 -1,131 Descending Oakland Center
Fri 09:27:51 PM 36.4017 -121.1478 333° Northwest 298 343 19,600 -1,073 Descending Oakland Center
Fri 09:28:53 PM 36.4750 -121.1939 333° Northwest 297 342 18,500 -1,073 Descending Oakland Center
Fri 09:29:54 PM 36.5308 -121.2661 314° West 288 331 17,400 -1,230 Descending Oakland Center
Fri 09:30:55 PM 36.5900 -121.3350 317° Northwest 289 333 16,000 -1,475 Descending Oakland Center
Fri 09:31:56 PM 36.6569 -121.4181 315° West 288 331 14,400 -1,426 Descending Oakland Center
Fri 09:32:57 PM 36.7094 -121.4828 315° West 273 314 13,100 -1,220 Descending Oakland Center
Fri 09:33:59 PM 36.7606 -121.5486 314° West 268 308 11,900 -1,171 Descending Oakland Center
Fri 09:35:00 PM 36.8103 -121.6108 315° West 261 300 10,700 -1,180 Descending Oakland Center
Fri 09:36:01 PM 36.8603 -121.6761 314° West 259 298 9,500 -1,190 Descending Oakland Center
Fri 09:37:06 PM 36.9167 -121.7500 314° West 257 296 8,200 -738 Descending Northern Cal TRACON
Fri 09:38:03 PM 36.9689 -121.7875 330° Northwest 256 295 8,000 -102 Descending Oakland Center
Fri 09:39:04 PM 37.0269 -121.8156 339° North 231 266 8,000 -244 Level Oakland Center
Fri 09:40:06 PM 37.0797 -121.8481 334° Northwest 220 253 7,500 -879 Descending Oakland Center
Fri 09:41:00 PM 37.1333 -121.8833 332° Northwest 234 269 6,300 -1,180 Descending Northern Cal TRACON
Fri 09:42:08 PM 37.1972 -121.9189 336° Northwest 233 268 5,100 -791 Descending Oakland Center
Fri 09:43:09 PM 37.2650 -121.9597 334° Northwest 228 262 4,600 -885 Descending Oakland Center
Fri 09:44:10 PM 37.3178 -121.9936 333° Northwest 219 252 3,300 -1,268 Descending Oakland Center
Fri 09:45:12 PM 37.3653 -122.0167 339° North 199 229 2,000 -983 Descending Oakland Center
Fri 09:46:06 PM 37.4000 -121.9833 37° Northeast 151 174 1,400 -895 Descending Northern Cal TRACON
Fri 09:47:06 PM 37.3833 -121.9500 122° Southeast 132 152 300 -1,100 Descending Northern Cal TRACON

Login

Don't have an account? Register now (free) for customized features, flight alerts, and more!